sensor_id;sensor_type;location;lat;lon;timestamp;P1;durP1;ratioP1;P2;durP2;ratioP2
58756;SDS011;44527;47.460;19.016;2024-01-06T00:02:57;31.83;;;14.23;;
58756;SDS011;44527;47.460;19.016;2024-01-06T00:06:00;37.15;;;14.98;;
58756;SDS011;44527;47.460;19.016;2024-01-06T00:09:02;29.10;;;14.45;;
58756;SDS011;44527;47.460;19.016;2024-01-06T00:12:05;32.13;;;15.35;;
58756;SDS011;44527;47.460;19.016;2024-01-06T00:15:08;35.22;;;14.98;;
58756;SDS011;44527;47.460;19.016;2024-01-06T00:18:11;35.60;;;14.93;;
58756;SDS011;44527;47.460;19.016;2024-01-06T00:21:13;36.28;;;15.55;;
58756;SDS011;44527;47.460;19.016;2024-01-06T00:24:16;29.05;;;14.50;;
58756;SDS011;44527;47.460;19.016;2024-01-06T00:27:18;35.20;;;15.43;;
58756;SDS011;44527;47.460;19.016;2024-01-06T00:30:23;36.70;;;15.63;;
58756;SDS011;44527;47.460;19.016;2024-01-06T00:33:26;29.20;;;15.38;;
58756;SDS011;44527;47.460;19.016;2024-01-06T00:36:28;37.00;;;16.10;;
58756;SDS011;44527;47.460;19.016;2024-01-06T00:39:31;31.77;;;15.95;;
58756;SDS011;44527;47.460;19.016;2024-01-06T00:42:33;32.03;;;15.48;;
58756;SDS011;44527;47.460;19.016;2024-01-06T00:45:36;33.35;;;16.30;;
58756;SDS011;44527;47.460;19.016;2024-01-06T00:48:38;33.72;;;15.25;;
58756;SDS011;44527;47.460;19.016;2024-01-06T00:51:41;30.15;;;16.10;;
58756;SDS011;44527;47.460;19.016;2024-01-06T00:54:43;34.60;;;16.37;;
58756;SDS011;44527;47.460;19.016;2024-01-06T00:57:45;32.05;;;15.20;;
58756;SDS011;44527;47.460;19.016;2024-01-06T01:00:48;32.25;;;15.05;;
58756;SDS011;44527;47.460;19.016;2024-01-06T01:03:51;37.10;;;16.10;;
58756;SDS011;44527;47.460;19.016;2024-01-06T01:06:53;33.78;;;15.38;;
58756;SDS011;44527;47.460;19.016;2024-01-06T01:09:56;38.55;;;16.58;;
58756;SDS011;44527;47.460;19.016;2024-01-06T01:12:59;37.92;;;15.85;;
58756;SDS011;44527;47.460;19.016;2024-01-06T01:16:01;33.85;;;16.00;;
58756;SDS011;44527;47.460;19.016;2024-01-06T01:19:05;33.25;;;16.40;;
58756;SDS011;44527;47.460;19.016;2024-01-06T01:22:07;31.12;;;15.75;;
58756;SDS011;44527;47.460;19.016;2024-01-06T01:25:10;32.83;;;15.30;;
58756;SDS011;44527;47.460;19.016;2024-01-06T01:28:14;32.03;;;16.50;;
58756;SDS011;44527;47.460;19.016;2024-01-06T01:31:19;32.60;;;16.10;;
58756;SDS011;44527;47.460;19.016;2024-01-06T01:34:21;33.90;;;16.40;;
58756;SDS011;44527;47.460;19.016;2024-01-06T01:37:24;37.70;;;16.50;;
58756;SDS011;44527;47.460;19.016;2024-01-06T01:40:26;31.70;;;15.35;;
58756;SDS011;44527;47.460;19.016;2024-01-06T01:43:30;34.63;;;15.10;;
58756;SDS011;44527;47.460;19.016;2024-01-06T01:46:32;34.25;;;15.93;;
58756;SDS011;44527;47.460;19.016;2024-01-06T01:49:35;35.33;;;14.45;;
58756;SDS011;44527;47.460;19.016;2024-01-06T01:52:38;28.05;;;15.30;;
58756;SDS011;44527;47.460;19.016;2024-01-06T01:55:42;32.63;;;15.80;;
58756;SDS011;44527;47.460;19.016;2024-01-06T01:58:46;32.88;;;14.35;;
58756;SDS011;44527;47.460;19.016;2024-01-06T02:01:49;34.65;;;14.98;;
58756;SDS011;44527;47.460;19.016;2024-01-06T02:04:52;31.77;;;14.82;;
58756;SDS011;44527;47.460;19.016;2024-01-06T02:07:55;28.60;;;13.48;;
58756;SDS011;44527;47.460;19.016;2024-01-06T02:10:57;31.95;;;15.70;;
58756;SDS011;44527;47.460;19.016;2024-01-06T02:14:00;29.27;;;15.13;;
58756;SDS011;44527;47.460;19.016;2024-01-06T02:17:02;27.40;;;14.52;;
58756;SDS011;44527;47.460;19.016;2024-01-06T02:20:06;29.10;;;14.27;;
58756;SDS011;44527;47.460;19.016;2024-01-06T02:23:09;29.35;;;13.75;;
58756;SDS011;44527;47.460;19.016;2024-01-06T02:26:12;28.27;;;14.65;;
58756;SDS011;44527;47.460;19.016;2024-01-06T02:29:16;32.15;;;14.13;;
58756;SDS011;44527;47.460;19.016;2024-01-06T02:32:19;34.67;;;14.87;;
58756;SDS011;44527;47.460;19.016;2024-01-06T02:35:21;26.42;;;13.02;;
58756;SDS011;44527;47.460;19.016;2024-01-06T02:38:24;25.83;;;13.62;;
58756;SDS011;44527;47.460;19.016;2024-01-06T02:41:26;35.20;;;15.63;;
58756;SDS011;44527;47.460;19.016;2024-01-06T02:44:29;28.77;;;14.35;;
58756;SDS011;44527;47.460;19.016;2024-01-06T02:47:31;34.33;;;14.73;;
58756;SDS011;44527;47.460;19.016;2024-01-06T02:50:33;26.70;;;13.57;;
58756;SDS011;44527;47.460;19.016;2024-01-06T02:53:36;26.62;;;13.40;;
58756;SDS011;44527;47.460;19.016;2024-01-06T02:56:38;24.52;;;12.68;;
58756;SDS011;44527;47.460;19.016;2024-01-06T02:59:40;33.45;;;15.63;;
58756;SDS011;44527;47.460;19.016;2024-01-06T03:02:43;32.88;;;14.20;;
58756;SDS011;44527;47.460;19.016;2024-01-06T03:05:45;29.02;;;14.68;;
58756;SDS011;44527;47.460;19.016;2024-01-06T03:08:51;26.50;;;14.10;;
58756;SDS011;44527;47.460;19.016;2024-01-06T03:11:54;28.17;;;15.60;;
58756;SDS011;44527;47.460;19.016;2024-01-06T03:14:56;32.65;;;15.10;;
58756;SDS011;44527;47.460;19.016;2024-01-06T03:17:59;33.67;;;16.35;;
58756;SDS011;44527;47.460;19.016;2024-01-06T03:21:01;34.70;;;15.45;;
58756;SDS011;44527;47.460;19.016;2024-01-06T03:24:04;36.58;;;16.73;;
58756;SDS011;44527;47.460;19.016;2024-01-06T03:27:07;30.23;;;15.85;;
58756;SDS011;44527;47.460;19.016;2024-01-06T03:30:11;30.15;;;15.10;;
58756;SDS011;44527;47.460;19.016;2024-01-06T03:33:14;35.22;;;16.02;;
58756;SDS011;44527;47.460;19.016;2024-01-06T03:36:17;31.25;;;15.27;;
58756;SDS011;44527;47.460;19.016;2024-01-06T03:39:19;38.75;;;16.17;;
58756;SDS011;44527;47.460;19.016;2024-01-06T03:42:22;34.63;;;15.70;;
58756;SDS011;44527;47.460;19.016;2024-01-06T03:45:24;36.67;;;15.82;;
58756;SDS011;44527;47.460;19.016;2024-01-06T03:48:27;27.52;;;16.05;;
58756;SDS011;44527;47.460;19.016;2024-01-06T03:51:29;29.98;;;15.55;;
58756;SDS011;44527;47.460;19.016;2024-01-06T03:54:32;35.67;;;15.45;;
58756;SDS011;44527;47.460;19.016;2024-01-06T03:57:35;33.70;;;15.68;;
58756;SDS011;44527;47.460;19.016;2024-01-06T04:00:37;30.08;;;15.05;;
58756;SDS011;44527;47.460;19.016;2024-01-06T04:03:40;30.33;;;15.80;;
58756;SDS011;44527;47.460;19.016;2024-01-06T04:06:42;32.63;;;15.57;;
58756;SDS011;44527;47.460;19.016;2024-01-06T04:09:47;29.63;;;14.52;;
58756;SDS011;44527;47.460;19.016;2024-01-06T04:12:50;28.92;;;14.95;;
58756;SDS011;44527;47.460;19.016;2024-01-06T04:15:52;28.87;;;15.75;;
58756;SDS011;44527;47.460;19.016;2024-01-06T04:18:55;36.90;;;15.57;;
58756;SDS011;44527;47.460;19.016;2024-01-06T04:21:58;34.42;;;15.05;;
58756;SDS011;44527;47.460;19.016;2024-01-06T04:25:01;31.25;;;15.20;;
58756;SDS011;44527;47.460;19.016;2024-01-06T04:28:04;31.58;;;16.08;;
58756;SDS011;44527;47.460;19.016;2024-01-06T04:31:06;30.00;;;16.02;;
58756;SDS011;44527;47.460;19.016;2024-01-06T04:34:13;30.92;;;14.95;;
58756;SDS011;44527;47.460;19.016;2024-01-06T04:37:16;28.45;;;14.82;;
58756;SDS011;44527;47.460;19.016;2024-01-06T04:40:18;34.60;;;15.38;;
58756;SDS011;44527;47.460;19.016;2024-01-06T04:43:21;31.83;;;15.63;;
58756;SDS011;44527;47.460;19.016;2024-01-06T04:46:23;29.20;;;15.10;;
58756;SDS011;44527;47.460;19.016;2024-01-06T04:49:25;29.92;;;15.88;;
58756;SDS011;44527;47.460;19.016;2024-01-06T04:52:28;33.88;;;13.93;;
58756;SDS011;44527;47.460;19.016;2024-01-06T04:55:31;34.97;;;14.75;;
58756;SDS011;44527;47.460;19.016;2024-01-06T04:58:34;31.02;;;15.13;;
58756;SDS011;44527;47.460;19.016;2024-01-06T05:01:36;24.75;;;13.23;;
58756;SDS011;44527;47.460;19.016;2024-01-06T05:04:39;36.92;;;14.57;;
58756;SDS011;44527;47.460;19.016;2024-01-06T05:07:41;28.30;;;14.55;;
58756;SDS011;44527;47.460;19.016;2024-01-06T05:10:44;33.40;;;14.57;;
58756;SDS011;44527;47.460;19.016;2024-01-06T05:13:51;27.15;;;14.65;;
58756;SDS011;44527;47.460;19.016;2024-01-06T05:16:53;26.95;;;14.60;;
58756;SDS011;44527;47.460;19.016;2024-01-06T05:19:56;28.58;;;14.85;;
58756;SDS011;44527;47.460;19.016;2024-01-06T05:22:58;27.37;;;13.52;;
58756;SDS011;44527;47.460;19.016;2024-01-06T05:26:01;26.98;;;14.35;;
58756;SDS011;44527;47.460;19.016;2024-01-06T05:29:03;30.80;;;14.57;;
58756;SDS011;44527;47.460;19.016;2024-01-06T05:32:05;29.92;;;15.55;;
58756;SDS011;44527;47.460;19.016;2024-01-06T05:35:08;28.92;;;15.02;;
58756;SDS011;44527;47.460;19.016;2024-01-06T05:38:10;33.42;;;15.32;;
58756;SDS011;44527;47.460;19.016;2024-01-06T05:41:13;28.35;;;14.93;;
58756;SDS011;44527;47.460;19.016;2024-01-06T05:44:15;32.30;;;13.52;;
58756;SDS011;44527;47.460;19.016;2024-01-06T05:47:18;28.70;;;14.77;;
58756;SDS011;44527;47.460;19.016;2024-01-06T05:50:20;28.67;;;14.87;;
58756;SDS011;44527;47.460;19.016;2024-01-06T05:53:23;31.90;;;13.30;;
58756;SDS011;44527;47.460;19.016;2024-01-06T05:56:27;30.75;;;14.63;;
58756;SDS011;44527;47.460;19.016;2024-01-06T05:59:32;28.70;;;14.18;;
58756;SDS011;44527;47.460;19.016;2024-01-06T06:02:34;29.08;;;13.75;;
58756;SDS011;44527;47.460;19.016;2024-01-06T06:05:37;25.50;;;13.98;;
58756;SDS011;44527;47.460;19.016;2024-01-06T06:08:40;26.17;;;13.98;;
58756;SDS011;44527;47.460;19.016;2024-01-06T06:11:44;25.42;;;13.62;;
58756;SDS011;44527;47.460;19.016;2024-01-06T06:14:46;26.27;;;13.98;;
58756;SDS011;44527;47.460;19.016;2024-01-06T06:17:49;25.92;;;13.82;;
58756;SDS011;44527;47.460;19.016;2024-01-06T06:20:51;27.55;;;13.48;;
58756;SDS011;44527;47.460;19.016;2024-01-06T06:23:54;35.00;;;14.40;;
58756;SDS011;44527;47.460;19.016;2024-01-06T06:26:56;24.10;;;12.02;;
58756;SDS011;44527;47.460;19.016;2024-01-06T06:29:59;28.45;;;13.88;;
58756;SDS011;44527;47.460;19.016;2024-01-06T06:33:01;28.62;;;13.98;;
58756;SDS011;44527;47.460;19.016;2024-01-06T06:36:04;26.45;;;13.38;;
58756;SDS011;44527;47.460;19.016;2024-01-06T06:39:06;26.50;;;13.13;;
58756;SDS011;44527;47.460;19.016;2024-01-06T06:42:09;26.90;;;13.15;;
58756;SDS011;44527;47.460;19.016;2024-01-06T06:45:11;22.65;;;13.18;;
58756;SDS011;44527;47.460;19.016;2024-01-06T06:48:14;28.05;;;13.52;;
58756;SDS011;44527;47.460;19.016;2024-01-06T06:51:16;26.95;;;12.68;;
58756;SDS011;44527;47.460;19.016;2024-01-06T06:54:19;24.37;;;13.95;;
58756;SDS011;44527;47.460;19.016;2024-01-06T06:57:21;24.33;;;12.95;;
58756;SDS011;44527;47.460;19.016;2024-01-06T07:00:24;23.55;;;12.60;;
58756;SDS011;44527;47.460;19.016;2024-01-06T07:03:26;27.40;;;14.00;;
58756;SDS011;44527;47.460;19.016;2024-01-06T07:06:29;27.52;;;14.15;;
58756;SDS011;44527;47.460;19.016;2024-01-06T07:09:32;30.27;;;13.48;;
58756;SDS011;44527;47.460;19.016;2024-01-06T07:12:35;28.77;;;14.07;;
58756;SDS011;44527;47.460;19.016;2024-01-06T07:15:37;24.23;;;13.90;;
58756;SDS011;44527;47.460;19.016;2024-01-06T07:18:40;28.75;;;13.55;;
58756;SDS011;44527;47.460;19.016;2024-01-06T07:21:42;22.48;;;12.52;;
58756;SDS011;44527;47.460;19.016;2024-01-06T07:24:45;23.95;;;11.95;;
58756;SDS011;44527;47.460;19.016;2024-01-06T07:27:48;24.67;;;11.70;;
58756;SDS011;44527;47.460;19.016;2024-01-06T07:30:53;24.67;;;12.48;;
58756;SDS011;44527;47.460;19.016;2024-01-06T07:33:57;23.45;;;12.30;;
58756;SDS011;44527;47.460;19.016;2024-01-06T07:37:00;20.92;;;10.75;;
58756;SDS011;44527;47.460;19.016;2024-01-06T07:40:02;22.00;;;12.35;;
58756;SDS011;44527;47.460;19.016;2024-01-06T07:43:05;25.23;;;12.30;;
58756;SDS011;44527;47.460;19.016;2024-01-06T07:46:07;23.52;;;10.93;;
58756;SDS011;44527;47.460;19.016;2024-01-06T07:49:11;27.00;;;11.15;;
58756;SDS011;44527;47.460;19.016;2024-01-06T07:52:14;21.33;;;11.05;;
58756;SDS011;44527;47.460;19.016;2024-01-06T07:55:17;21.80;;;11.57;;
58756;SDS011;44527;47.460;19.016;2024-01-06T07:58:20;21.50;;;9.40;;
58756;SDS011;44527;47.460;19.016;2024-01-06T08:01:24;23.27;;;11.52;;
58756;SDS011;44527;47.460;19.016;2024-01-06T08:04:26;23.95;;;10.95;;
58756;SDS011;44527;47.460;19.016;2024-01-06T08:07:29;18.90;;;10.60;;
58756;SDS011;44527;47.460;19.016;2024-01-06T08:10:31;26.33;;;12.07;;
58756;SDS011;44527;47.460;19.016;2024-01-06T08:13:33;20.50;;;11.12;;
58756;SDS011;44527;47.460;19.016;2024-01-06T08:16:36;23.85;;;12.23;;
58756;SDS011;44527;47.460;19.016;2024-01-06T08:19:39;24.02;;;11.88;;
58756;SDS011;44527;47.460;19.016;2024-01-06T08:22:42;22.60;;;11.07;;
58756;SDS011;44527;47.460;19.016;2024-01-06T08:25:44;25.02;;;12.13;;
58756;SDS011;44527;47.460;19.016;2024-01-06T08:28:48;21.30;;;12.00;;
58756;SDS011;44527;47.460;19.016;2024-01-06T08:31:50;21.75;;;10.80;;
58756;SDS011;44527;47.460;19.016;2024-01-06T08:34:54;21.80;;;12.27;;
58756;SDS011;44527;47.460;19.016;2024-01-06T08:37:57;21.25;;;11.20;;
58756;SDS011;44527;47.460;19.016;2024-01-06T08:40:59;20.48;;;11.35;;
58756;SDS011;44527;47.460;19.016;2024-01-06T08:44:01;19.87;;;10.43;;
58756;SDS011;44527;47.460;19.016;2024-01-06T08:47:04;21.95;;;10.38;;
58756;SDS011;44527;47.460;19.016;2024-01-06T08:50:07;26.80;;;11.70;;
58756;SDS011;44527;47.460;19.016;2024-01-06T08:53:10;27.10;;;11.65;;
58756;SDS011;44527;47.460;19.016;2024-01-06T08:56:12;22.83;;;11.50;;
58756;SDS011;44527;47.460;19.016;2024-01-06T08:59:15;19.08;;;9.43;;
58756;SDS011;44527;47.460;19.016;2024-01-06T09:02:17;19.00;;;10.48;;
58756;SDS011;44527;47.460;19.016;2024-01-06T09:05:19;26.77;;;10.82;;
58756;SDS011;44527;47.460;19.016;2024-01-06T09:08:22;21.87;;;11.38;;
58756;SDS011;44527;47.460;19.016;2024-01-06T09:11:26;22.17;;;10.55;;
58756;SDS011;44527;47.460;19.016;2024-01-06T09:14:28;25.15;;;9.68;;
58756;SDS011;44527;47.460;19.016;2024-01-06T09:17:31;20.67;;;10.38;;
58756;SDS011;44527;47.460;19.016;2024-01-06T09:20:34;18.92;;;10.40;;
58756;SDS011;44527;47.460;19.016;2024-01-06T09:23:36;19.65;;;9.50;;
58756;SDS011;44527;47.460;19.016;2024-01-06T09:26:39;24.00;;;11.38;;
58756;SDS011;44527;47.460;19.016;2024-01-06T09:29:41;17.73;;;9.73;;
58756;SDS011;44527;47.460;19.016;2024-01-06T09:32:44;22.70;;;10.77;;
58756;SDS011;44527;47.460;19.016;2024-01-06T09:35:46;17.75;;;9.98;;
58756;SDS011;44527;47.460;19.016;2024-01-06T09:38:49;21.67;;;9.82;;
58756;SDS011;44527;47.460;19.016;2024-01-06T09:41:51;24.45;;;11.02;;
58756;SDS011;44527;47.460;19.016;2024-01-06T09:44:54;15.30;;;9.40;;
58756;SDS011;44527;47.460;19.016;2024-01-06T09:47:56;18.48;;;10.02;;
58756;SDS011;44527;47.460;19.016;2024-01-06T09:51:01;20.50;;;9.38;;
58756;SDS011;44527;47.460;19.016;2024-01-06T09:54:09;25.50;;;9.55;;
58756;SDS011;44527;47.460;19.016;2024-01-06T09:57:14;21.30;;;8.83;;
58756;SDS011;44527;47.460;19.016;2024-01-06T10:00:17;21.37;;;10.18;;
58756;SDS011;44527;47.460;19.016;2024-01-06T10:03:22;19.65;;;9.52;;
58756;SDS011;44527;47.460;19.016;2024-01-06T10:06:24;19.98;;;10.68;;
58756;SDS011;44527;47.460;19.016;2024-01-06T10:09:27;17.30;;;9.77;;
58756;SDS011;44527;47.460;19.016;2024-01-06T10:12:30;19.92;;;10.10;;
58756;SDS011;44527;47.460;19.016;2024-01-06T10:15:35;20.20;;;9.82;;
58756;SDS011;44527;47.460;19.016;2024-01-06T10:18:38;26.05;;;9.70;;
58756;SDS011;44527;47.460;19.016;2024-01-06T10:21:41;20.92;;;9.50;;
58756;SDS011;44527;47.460;19.016;2024-01-06T10:24:43;20.20;;;10.30;;
58756;SDS011;44527;47.460;19.016;2024-01-06T10:27:46;20.23;;;9.57;;
58756;SDS011;44527;47.460;19.016;2024-01-06T10:30:52;21.50;;;10.05;;
58756;SDS011;44527;47.460;19.016;2024-01-06T10:33:56;20.23;;;9.57;;
58756;SDS011;44527;47.460;19.016;2024-01-06T10:36:58;18.50;;;9.60;;
58756;SDS011;44527;47.460;19.016;2024-01-06T10:40:19;18.55;;;9.60;;
58756;SDS011;44527;47.460;19.016;2024-01-06T10:43:22;19.37;;;9.68;;
58756;SDS011;44527;47.460;19.016;2024-01-06T10:46:27;19.90;;;9.13;;
58756;SDS011;44527;47.460;19.016;2024-01-06T10:49:31;18.20;;;10.15;;
58756;SDS011;44527;47.460;19.016;2024-01-06T10:52:34;18.85;;;9.45;;
58756;SDS011;44527;47.460;19.016;2024-01-06T10:55:37;19.70;;;10.80;;
58756;SDS011;44527;47.460;19.016;2024-01-06T10:58:45;19.35;;;10.27;;
58756;SDS011;44527;47.460;19.016;2024-01-06T11:01:49;18.75;;;10.18;;
58756;SDS011;44527;47.460;19.016;2024-01-06T11:04:54;19.67;;;9.95;;
58756;SDS011;44527;47.460;19.016;2024-01-06T11:07:56;20.62;;;10.23;;
58756;SDS011;44527;47.460;19.016;2024-01-06T11:11:03;19.60;;;10.18;;
58756;SDS011;44527;47.460;19.016;2024-01-06T11:24:28;19.80;;;10.52;;
58756;SDS011;44527;47.460;19.016;2024-01-06T11:27:38;15.63;;;9.40;;
58756;SDS011;44527;47.460;19.016;2024-01-06T11:30:41;25.80;;;10.48;;
58756;SDS011;44527;47.460;19.016;2024-01-06T11:33:44;23.02;;;11.23;;
58756;SDS011;44527;47.460;19.016;2024-01-06T11:36:51;15.98;;;9.65;;
58756;SDS011;44527;47.460;19.016;2024-01-06T11:39:53;18.40;;;10.82;;
58756;SDS011;44527;47.460;19.016;2024-01-06T11:43:03;20.95;;;9.98;;
58756;SDS011;44527;47.460;19.016;2024-01-06T11:46:08;22.05;;;11.75;;
58756;SDS011;44527;47.460;19.016;2024-01-06T11:49:13;23.95;;;11.30;;
58756;SDS011;44527;47.460;19.016;2024-01-06T11:52:18;18.40;;;10.48;;
58756;SDS011;44527;47.460;19.016;2024-01-06T11:55:21;19.95;;;10.82;;
58756;SDS011;44527;47.460;19.016;2024-01-06T11:58:23;21.45;;;10.82;;
58756;SDS011;44527;47.460;19.016;2024-01-06T12:01:27;20.48;;;11.15;;
58756;SDS011;44527;47.460;19.016;2024-01-06T12:04:30;19.52;;;10.48;;
58756;SDS011;44527;47.460;19.016;2024-01-06T12:07:32;19.40;;;11.25;;
58756;SDS011;44527;47.460;19.016;2024-01-06T12:10:37;20.67;;;12.30;;
58756;SDS011;44527;47.460;19.016;2024-01-06T12:13:39;18.05;;;9.60;;
58756;SDS011;44527;47.460;19.016;2024-01-06T12:16:42;21.75;;;11.48;;
58756;SDS011;44527;47.460;19.016;2024-01-06T12:19:45;22.77;;;10.95;;
58756;SDS011;44527;47.460;19.016;2024-01-06T12:22:49;22.00;;;12.23;;
58756;SDS011;44527;47.460;19.016;2024-01-06T12:25:54;24.50;;;12.02;;
58756;SDS011;44527;47.460;19.016;2024-01-06T12:28:57;23.65;;;12.07;;
58756;SDS011;44527;47.460;19.016;2024-01-06T12:31:59;19.73;;;11.77;;
58756;SDS011;44527;47.460;19.016;2024-01-06T12:35:02;23.92;;;12.05;;
58756;SDS011;44527;47.460;19.016;2024-01-06T12:38:05;20.75;;;11.98;;
58756;SDS011;44527;47.460;19.016;2024-01-06T12:41:10;30.33;;;14.40;;
58756;SDS011;44527;47.460;19.016;2024-01-06T12:44:12;22.40;;;12.35;;
58756;SDS011;44527;47.460;19.016;2024-01-06T12:47:15;30.02;;;14.10;;
58756;SDS011;44527;47.460;19.016;2024-01-06T12:50:17;22.13;;;12.37;;
58756;SDS011;44527;47.460;19.016;2024-01-06T12:53:20;25.10;;;13.50;;
58756;SDS011;44527;47.460;19.016;2024-01-06T12:56:22;25.77;;;14.23;;
58756;SDS011;44527;47.460;19.016;2024-01-06T12:59:25;25.08;;;13.50;;
58756;SDS011;44527;47.460;19.016;2024-01-06T13:02:27;26.02;;;13.68;;
58756;SDS011;44527;47.460;19.016;2024-01-06T13:05:29;27.08;;;13.30;;
58756;SDS011;44527;47.460;19.016;2024-01-06T13:08:32;23.05;;;12.43;;
58756;SDS011;44527;47.460;19.016;2024-01-06T13:11:35;27.25;;;13.70;;
58756;SDS011;44527;47.460;19.016;2024-01-06T13:14:38;27.48;;;14.85;;
58756;SDS011;44527;47.460;19.016;2024-01-06T13:17:40;27.92;;;12.93;;
58756;SDS011;44527;47.460;19.016;2024-01-06T13:20:43;26.62;;;12.82;;
58756;SDS011;44527;47.460;19.016;2024-01-06T13:23:45;24.45;;;12.30;;
58756;SDS011;44527;47.460;19.016;2024-01-06T13:26:48;25.08;;;13.85;;
58756;SDS011;44527;47.460;19.016;2024-01-06T13:29:50;26.33;;;13.48;;
58756;SDS011;44527;47.460;19.016;2024-01-06T13:32:53;26.58;;;13.27;;
58756;SDS011;44527;47.460;19.016;2024-01-06T13:35:57;27.95;;;13.43;;
58756;SDS011;44527;47.460;19.016;2024-01-06T13:38:59;29.45;;;13.82;;
58756;SDS011;44527;47.460;19.016;2024-01-06T13:42:02;28.15;;;13.65;;
58756;SDS011;44527;47.460;19.016;2024-01-06T13:45:08;26.73;;;14.02;;
58756;SDS011;44527;47.460;19.016;2024-01-06T13:48:12;23.52;;;12.95;;
58756;SDS011;44527;47.460;19.016;2024-01-06T13:51:14;23.55;;;13.45;;
58756;SDS011;44527;47.460;19.016;2024-01-06T13:54:17;25.42;;;13.18;;
58756;SDS011;44527;47.460;19.016;2024-01-06T13:57:21;24.48;;;12.37;;
58756;SDS011;44527;47.460;19.016;2024-01-06T14:00:24;23.00;;;12.40;;
58756;SDS011;44527;47.460;19.016;2024-01-06T14:03:28;22.92;;;13.48;;
58756;SDS011;44527;47.460;19.016;2024-01-06T14:06:30;24.95;;;12.52;;
58756;SDS011;44527;47.460;19.016;2024-01-06T14:09:34;23.48;;;12.65;;
58756;SDS011;44527;47.460;19.016;2024-01-06T14:12:37;26.08;;;13.35;;
58756;SDS011;44527;47.460;19.016;2024-01-06T14:15:39;25.52;;;11.95;;
58756;SDS011;44527;47.460;19.016;2024-01-06T14:18:42;24.92;;;12.65;;
58756;SDS011;44527;47.460;19.016;2024-01-06T14:21:44;24.27;;;12.90;;
58756;SDS011;44527;47.460;19.016;2024-01-06T14:24:47;25.00;;;13.57;;
58756;SDS011;44527;47.460;19.016;2024-01-06T14:27:49;28.12;;;13.00;;
58756;SDS011;44527;47.460;19.016;2024-01-06T14:30:52;25.00;;;13.35;;
58756;SDS011;44527;47.460;19.016;2024-01-06T14:33:54;28.27;;;13.48;;
58756;SDS011;44527;47.460;19.016;2024-01-06T14:37:01;26.17;;;12.95;;
58756;SDS011;44527;47.460;19.016;2024-01-06T14:40:04;25.90;;;13.02;;
58756;SDS011;44527;47.460;19.016;2024-01-06T14:43:08;24.42;;;13.65;;
58756;SDS011;44527;47.460;19.016;2024-01-06T14:46:12;26.05;;;13.85;;
58756;SDS011;44527;47.460;19.016;2024-01-06T14:49:15;22.10;;;11.52;;
58756;SDS011;44527;47.460;19.016;2024-01-06T14:52:17;26.20;;;13.25;;
58756;SDS011;44527;47.460;19.016;2024-01-06T14:55:20;23.38;;;13.38;;
58756;SDS011;44527;47.460;19.016;2024-01-06T14:58:23;27.62;;;13.00;;
58756;SDS011;44527;47.460;19.016;2024-01-06T15:01:25;25.60;;;13.75;;
58756;SDS011;44527;47.460;19.016;2024-01-06T15:04:28;22.77;;;12.37;;
58756;SDS011;44527;47.460;19.016;2024-01-06T15:07:32;27.45;;;13.30;;
58756;SDS011;44527;47.460;19.016;2024-01-06T15:10:35;22.50;;;13.77;;
58756;SDS011;44527;47.460;19.016;2024-01-06T15:13:37;25.70;;;14.00;;
58756;SDS011;44527;47.460;19.016;2024-01-06T15:16:40;21.20;;;12.68;;
58756;SDS011;44527;47.460;19.016;2024-01-06T15:19:42;20.88;;;12.05;;
58756;SDS011;44527;47.460;19.016;2024-01-06T15:22:45;20.35;;;11.23;;
58756;SDS011;44527;47.460;19.016;2024-01-06T15:25:47;26.87;;;12.90;;
58756;SDS011;44527;47.460;19.016;2024-01-06T15:28:50;21.10;;;11.80;;
58756;SDS011;44527;47.460;19.016;2024-01-06T15:31:52;26.33;;;13.23;;
58756;SDS011;44527;47.460;19.016;2024-01-06T15:34:59;25.00;;;12.65;;
58756;SDS011;44527;47.460;19.016;2024-01-06T15:38:01;21.12;;;11.68;;
58756;SDS011;44527;47.460;19.016;2024-01-06T15:41:04;24.55;;;12.48;;
58756;SDS011;44527;47.460;19.016;2024-01-06T15:44:08;25.83;;;13.43;;
58756;SDS011;44527;47.460;19.016;2024-01-06T15:47:11;25.00;;;12.32;;
58756;SDS011;44527;47.460;19.016;2024-01-06T15:50:13;23.95;;;12.18;;
58756;SDS011;44527;47.460;19.016;2024-01-06T15:53:16;25.55;;;13.70;;
58756;SDS011;44527;47.460;19.016;2024-01-06T15:56:19;21.65;;;11.18;;
58756;SDS011;44527;47.460;19.016;2024-01-06T15:59:22;23.30;;;13.00;;
58756;SDS011;44527;47.460;19.016;2024-01-06T16:02:24;26.12;;;13.57;;
58756;SDS011;44527;47.460;19.016;2024-01-06T16:05:27;22.92;;;13.88;;
58756;SDS011;44527;47.460;19.016;2024-01-06T16:08:29;21.67;;;12.25;;
58756;SDS011;44527;47.460;19.016;2024-01-06T16:11:32;25.08;;;12.48;;
58756;SDS011;44527;47.460;19.016;2024-01-06T16:14:34;25.52;;;12.40;;
58756;SDS011;44527;47.460;19.016;2024-01-06T16:17:37;23.58;;;13.73;;
58756;SDS011;44527;47.460;19.016;2024-01-06T16:20:40;21.20;;;12.13;;
58756;SDS011;44527;47.460;19.016;2024-01-06T16:23:43;21.08;;;12.60;;
58756;SDS011;44527;47.460;19.016;2024-01-06T16:26:45;27.95;;;13.45;;
58756;SDS011;44527;47.460;19.016;2024-01-06T16:29:48;20.67;;;11.63;;
58756;SDS011;44527;47.460;19.016;2024-01-06T16:32:50;22.40;;;12.40;;
58756;SDS011;44527;47.460;19.016;2024-01-06T16:35:54;24.77;;;12.48;;
58756;SDS011;44527;47.460;19.016;2024-01-06T16:38:56;21.55;;;11.80;;
58756;SDS011;44527;47.460;19.016;2024-01-06T16:41:59;22.83;;;12.88;;
58756;SDS011;44527;47.460;19.016;2024-01-06T16:45:01;26.12;;;11.18;;
58756;SDS011;44527;47.460;19.016;2024-01-06T16:48:04;26.15;;;13.43;;
58756;SDS011;44527;47.460;19.016;2024-01-06T16:51:07;27.83;;;13.80;;
58756;SDS011;44527;47.460;19.016;2024-01-06T16:54:11;26.35;;;13.07;;
58756;SDS011;44527;47.460;19.016;2024-01-06T16:57:13;25.80;;;13.43;;
58756;SDS011;44527;47.460;19.016;2024-01-06T17:00:18;24.02;;;12.73;;
58756;SDS011;44527;47.460;19.016;2024-01-06T17:03:21;24.65;;;12.13;;
58756;SDS011;44527;47.460;19.016;2024-01-06T17:06:24;26.05;;;12.50;;
58756;SDS011;44527;47.460;19.016;2024-01-06T17:09:26;25.05;;;13.18;;
58756;SDS011;44527;47.460;19.016;2024-01-06T17:12:29;24.77;;;13.07;;
58756;SDS011;44527;47.460;19.016;2024-01-06T17:15:34;27.90;;;13.73;;
58756;SDS011;44527;47.460;19.016;2024-01-06T17:18:36;24.70;;;13.20;;
58756;SDS011;44527;47.460;19.016;2024-01-06T17:21:39;27.83;;;12.68;;
58756;SDS011;44527;47.460;19.016;2024-01-06T17:24:42;27.33;;;13.32;;
58756;SDS011;44527;47.460;19.016;2024-01-06T17:27:44;25.90;;;13.25;;
58756;SDS011;44527;47.460;19.016;2024-01-06T17:30:48;27.10;;;13.70;;
58756;SDS011;44527;47.460;19.016;2024-01-06T17:33:50;24.87;;;13.55;;
58756;SDS011;44527;47.460;19.016;2024-01-06T17:36:53;26.30;;;13.35;;
58756;SDS011;44527;47.460;19.016;2024-01-06T17:39:55;32.42;;;15.00;;
58756;SDS011;44527;47.460;19.016;2024-01-06T17:42:58;26.33;;;12.63;;
58756;SDS011;44527;47.460;19.016;2024-01-06T17:46:01;24.67;;;14.07;;
58756;SDS011;44527;47.460;19.016;2024-01-06T17:49:04;24.40;;;13.52;;